sensor_id;sensor_type;location;lat;lon;timestamp;P1;durP1;ratioP1;P2;durP2;ratioP2
11348;SDS011;5729;43.570;27.826;2022-09-17T00:00:59;7.65;;;2.78;;
11348;SDS011;5729;43.570;27.826;2022-09-17T00:03:25;7.30;;;3.20;;
11348;SDS011;5729;43.570;27.826;2022-09-17T00:05:58;11.93;;;3.35;;
11348;SDS011;5729;43.570;27.826;2022-09-17T00:08:29;11.85;;;3.40;;
11348;SDS011;5729;43.570;27.826;2022-09-17T00:10:55;10.30;;;3.60;;
11348;SDS011;5729;43.570;27.826;2022-09-17T00:13:21;15.38;;;3.35;;
11348;SDS011;5729;43.570;27.826;2022-09-17T00:15:46;11.45;;;3.65;;
11348;SDS011;5729;43.570;27.826;2022-09-17T00:18:13;9.68;;;3.20;;
11348;SDS011;5729;43.570;27.826;2022-09-17T00:20:39;11.43;;;3.40;;
11348;SDS011;5729;43.570;27.826;2022-09-17T00:23:07;13.35;;;3.83;;
11348;SDS011;5729;43.570;27.826;2022-09-17T00:25:33;9.95;;;3.15;;
11348;SDS011;5729;43.570;27.826;2022-09-17T00:28:02;9.40;;;3.30;;
11348;SDS011;5729;43.570;27.826;2022-09-17T00:30:27;9.45;;;3.53;;
11348;SDS011;5729;43.570;27.826;2022-09-17T00:32:53;10.05;;;2.88;;
11348;SDS011;5729;43.570;27.826;2022-09-17T00:35:21;9.98;;;3.58;;
11348;SDS011;5729;43.570;27.826;2022-09-17T00:37:48;8.52;;;2.88;;
11348;SDS011;5729;43.570;27.826;2022-09-17T00:40:13;7.85;;;3.95;;
11348;SDS011;5729;43.570;27.826;2022-09-17T00:42:38;9.25;;;3.60;;
11348;SDS011;5729;43.570;27.826;2022-09-17T00:45:04;7.05;;;3.30;;
11348;SDS011;5729;43.570;27.826;2022-09-17T00:47:44;11.82;;;3.47;;
11348;SDS011;5729;43.570;27.826;2022-09-17T00:53:20;11.75;;;3.60;;
11348;SDS011;5729;43.570;27.826;2022-09-17T00:58:29;12.60;;;3.60;;
11348;SDS011;5729;43.570;27.826;2022-09-17T01:00:57;19.70;;;4.70;;
11348;SDS011;5729;43.570;27.826;2022-09-17T01:03:24;9.75;;;4.07;;
11348;SDS011;5729;43.570;27.826;2022-09-17T01:08:20;15.45;;;4.60;;
11348;SDS011;5729;43.570;27.826;2022-09-17T01:11:11;11.15;;;3.08;;
11348;SDS011;5729;43.570;27.826;2022-09-17T01:37:17;6.63;;;2.72;;
11348;SDS011;5729;43.570;27.826;2022-09-17T01:43:18;7.53;;;3.20;;
11348;SDS011;5729;43.570;27.826;2022-09-17T01:45:38;10.65;;;3.25;;
11348;SDS011;5729;43.570;27.826;2022-09-17T01:51:26;12.23;;;3.28;;
11348;SDS011;5729;43.570;27.826;2022-09-17T01:56:27;11.55;;;3.15;;
11348;SDS011;5729;43.570;27.826;2022-09-17T01:59:06;8.85;;;3.20;;
11348;SDS011;5729;43.570;27.826;2022-09-17T02:01:38;6.97;;;2.78;;
11348;SDS011;5729;43.570;27.826;2022-09-17T02:04:09;9.75;;;3.97;;
11348;SDS011;5729;43.570;27.826;2022-09-17T02:06:39;14.65;;;3.22;;
11348;SDS011;5729;43.570;27.826;2022-09-17T02:09:15;11.15;;;3.20;;
11348;SDS011;5729;43.570;27.826;2022-09-17T02:11:48;7.30;;;3.05;;
11348;SDS011;5729;43.570;27.826;2022-09-17T02:14:21;11.13;;;3.08;;
11348;SDS011;5729;43.570;27.826;2022-09-17T02:16:54;8.63;;;3.35;;
11348;SDS011;5729;43.570;27.826;2022-09-17T02:22:13;12.23;;;3.20;;
11348;SDS011;5729;43.570;27.826;2022-09-17T02:24:45;7.32;;;3.00;;
11348;SDS011;5729;43.570;27.826;2022-09-17T02:29:46;8.90;;;3.22;;
11348;SDS011;5729;43.570;27.826;2022-09-17T02:32:12;6.90;;;2.97;;
11348;SDS011;5729;43.570;27.826;2022-09-17T02:34:38;7.50;;;3.30;;
11348;SDS011;5729;43.570;27.826;2022-09-17T02:37:04;9.63;;;3.00;;
11348;SDS011;5729;43.570;27.826;2022-09-17T02:39:31;9.45;;;3.17;;
11348;SDS011;5729;43.570;27.826;2022-09-17T02:42:02;7.45;;;3.10;;
11348;SDS011;5729;43.570;27.826;2022-09-17T02:50:38;8.98;;;3.25;;
11348;SDS011;5729;43.570;27.826;2022-09-17T03:01:45;6.85;;;3.35;;
11348;SDS011;5729;43.570;27.826;2022-09-17T03:04:33;12.23;;;3.20;;
11348;SDS011;5729;43.570;27.826;2022-09-17T03:07:04;13.15;;;3.30;;
11348;SDS011;5729;43.570;27.826;2022-09-17T03:09:33;12.23;;;3.40;;
11348;SDS011;5729;43.570;27.826;2022-09-17T03:11:59;5.25;;;2.53;;
11348;SDS011;5729;43.570;27.826;2022-09-17T03:14:24;6.60;;;2.80;;
11348;SDS011;5729;43.570;27.826;2022-09-17T03:16:50;6.43;;;3.00;;
11348;SDS011;5729;43.570;27.826;2022-09-17T03:19:15;7.35;;;2.85;;
11348;SDS011;5729;43.570;27.826;2022-09-17T03:21:41;11.98;;;3.22;;
11348;SDS011;5729;43.570;27.826;2022-09-17T03:24:06;7.63;;;2.67;;
11348;SDS011;5729;43.570;27.826;2022-09-17T03:26:32;7.50;;;3.30;;
11348;SDS011;5729;43.570;27.826;2022-09-17T03:28:57;10.82;;;3.55;;
11348;SDS011;5729;43.570;27.826;2022-09-17T03:31:23;8.23;;;2.75;;
11348;SDS011;5729;43.570;27.826;2022-09-17T03:33:49;8.90;;;3.80;;
11348;SDS011;5729;43.570;27.826;2022-09-17T03:36:14;11.00;;;3.20;;
11348;SDS011;5729;43.570;27.826;2022-09-17T03:38:40;8.27;;;3.08;;
11348;SDS011;5729;43.570;27.826;2022-09-17T03:41:05;7.30;;;2.92;;
11348;SDS011;5729;43.570;27.826;2022-09-17T03:43:31;7.25;;;3.13;;
11348;SDS011;5729;43.570;27.826;2022-09-17T03:45:57;6.55;;;3.60;;
11348;SDS011;5729;43.570;27.826;2022-09-17T03:48:24;10.68;;;3.20;;
11348;SDS011;5729;43.570;27.826;2022-09-17T03:50:50;9.30;;;3.55;;
11348;SDS011;5729;43.570;27.826;2022-09-17T03:53:15;16.00;;;4.00;;
11348;SDS011;5729;43.570;27.826;2022-09-17T03:55:41;6.97;;;3.60;;
11348;SDS011;5729;43.570;27.826;2022-09-17T03:58:06;15.63;;;4.43;;
11348;SDS011;5729;43.570;27.826;2022-09-17T04:00:32;23.63;;;4.15;;
11348;SDS011;5729;43.570;27.826;2022-09-17T04:03:01;16.05;;;5.35;;
11348;SDS011;5729;43.570;27.826;2022-09-17T04:05:27;14.25;;;4.13;;
11348;SDS011;5729;43.570;27.826;2022-09-17T04:07:52;11.88;;;4.10;;
11348;SDS011;5729;43.570;27.826;2022-09-17T04:10:18;11.20;;;3.95;;
11348;SDS011;5729;43.570;27.826;2022-09-17T04:12:43;12.38;;;4.00;;
11348;SDS011;5729;43.570;27.826;2022-09-17T04:15:09;14.38;;;4.47;;
11348;SDS011;5729;43.570;27.826;2022-09-17T04:17:35;9.27;;;4.05;;
11348;SDS011;5729;43.570;27.826;2022-09-17T04:20:00;22.92;;;5.03;;
11348;SDS011;5729;43.570;27.826;2022-09-17T04:22:26;16.35;;;4.40;;
11348;SDS011;5729;43.570;27.826;2022-09-17T04:24:51;15.88;;;4.20;;
11348;SDS011;5729;43.570;27.826;2022-09-17T04:27:17;10.80;;;4.32;;
11348;SDS011;5729;43.570;27.826;2022-09-17T04:29:43;11.60;;;4.65;;
11348;SDS011;5729;43.570;27.826;2022-09-17T04:32:08;15.18;;;4.50;;
11348;SDS011;5729;43.570;27.826;2022-09-17T04:34:33;11.23;;;4.95;;
11348;SDS011;5729;43.570;27.826;2022-09-17T04:36:59;17.40;;;4.85;;
11348;SDS011;5729;43.570;27.826;2022-09-17T04:39:24;13.20;;;3.80;;
11348;SDS011;5729;43.570;27.826;2022-09-17T04:41:50;9.48;;;3.22;;
11348;SDS011;5729;43.570;27.826;2022-09-17T04:44:15;9.15;;;3.53;;
11348;SDS011;5729;43.570;27.826;2022-09-17T04:46:41;9.23;;;3.58;;
11348;SDS011;5729;43.570;27.826;2022-09-17T04:49:06;13.32;;;4.32;;
11348;SDS011;5729;43.570;27.826;2022-09-17T04:51:32;12.90;;;3.70;;
11348;SDS011;5729;43.570;27.826;2022-09-17T04:53:58;11.65;;;3.70;;
11348;SDS011;5729;43.570;27.826;2022-09-17T04:56:23;7.68;;;3.40;;
11348;SDS011;5729;43.570;27.826;2022-09-17T04:58:49;13.38;;;4.18;;
11348;SDS011;5729;43.570;27.826;2022-09-17T05:01:14;9.57;;;3.80;;
11348;SDS011;5729;43.570;27.826;2022-09-17T05:03:42;12.48;;;4.75;;
11348;SDS011;5729;43.570;27.826;2022-09-17T05:06:08;9.68;;;3.75;;
11348;SDS011;5729;43.570;27.826;2022-09-17T05:08:33;12.98;;;3.40;;
11348;SDS011;5729;43.570;27.826;2022-09-17T05:10:59;11.18;;;3.85;;
11348;SDS011;5729;43.570;27.826;2022-09-17T05:13:24;13.07;;;3.30;;
11348;SDS011;5729;43.570;27.826;2022-09-17T05:15:50;12.25;;;3.90;;
11348;SDS011;5729;43.570;27.826;2022-09-17T05:18:15;9.82;;;4.00;;
11348;SDS011;5729;43.570;27.826;2022-09-17T05:20:41;17.00;;;3.55;;
11348;SDS011;5729;43.570;27.826;2022-09-17T05:23:06;10.50;;;3.92;;
11348;SDS011;5729;43.570;27.826;2022-09-17T05:25:32;8.43;;;3.97;;
11348;SDS011;5729;43.570;27.826;2022-09-17T05:27:57;9.02;;;3.50;;
11348;SDS011;5729;43.570;27.826;2022-09-17T05:30:25;11.02;;;3.60;;
11348;SDS011;5729;43.570;27.826;2022-09-17T05:32:57;11.15;;;4.13;;
11348;SDS011;5729;43.570;27.826;2022-09-17T05:35:24;12.65;;;4.15;;
11348;SDS011;5729;43.570;27.826;2022-09-17T05:37:49;11.07;;;3.20;;
11348;SDS011;5729;43.570;27.826;2022-09-17T05:40:14;9.77;;;3.70;;
11348;SDS011;5729;43.570;27.826;2022-09-17T05:42:40;14.85;;;3.72;;
11348;SDS011;5729;43.570;27.826;2022-09-17T05:45:06;12.10;;;4.35;;
11348;SDS011;5729;43.570;27.826;2022-09-17T05:47:32;19.88;;;5.00;;
11348;SDS011;5729;43.570;27.826;2022-09-17T05:49:59;13.27;;;4.05;;
11348;SDS011;5729;43.570;27.826;2022-09-17T05:52:28;12.38;;;3.95;;
11348;SDS011;5729;43.570;27.826;2022-09-17T05:54:55;19.85;;;4.70;;
11348;SDS011;5729;43.570;27.826;2022-09-17T05:57:20;19.95;;;4.28;;
11348;SDS011;5729;43.570;27.826;2022-09-17T05:59:46;11.60;;;4.40;;
11348;SDS011;5729;43.570;27.826;2022-09-17T06:02:14;15.70;;;4.50;;
11348;SDS011;5729;43.570;27.826;2022-09-17T06:04:40;18.92;;;4.95;;
11348;SDS011;5729;43.570;27.826;2022-09-17T06:07:05;13.63;;;4.20;;
11348;SDS011;5729;43.570;27.826;2022-09-17T06:09:36;18.52;;;3.80;;
11348;SDS011;5729;43.570;27.826;2022-09-17T06:12:02;15.48;;;4.03;;
11348;SDS011;5729;43.570;27.826;2022-09-17T06:14:29;12.60;;;3.75;;
11348;SDS011;5729;43.570;27.826;2022-09-17T06:16:55;21.05;;;4.30;;
11348;SDS011;5729;43.570;27.826;2022-09-17T06:19:21;14.02;;;3.15;;
11348;SDS011;5729;43.570;27.826;2022-09-17T06:21:46;12.48;;;3.70;;
11348;SDS011;5729;43.570;27.826;2022-09-17T06:24:14;22.60;;;3.75;;
11348;SDS011;5729;43.570;27.826;2022-09-17T06:26:40;11.65;;;3.63;;
11348;SDS011;5729;43.570;27.826;2022-09-17T06:29:05;9.90;;;3.58;;
11348;SDS011;5729;43.570;27.826;2022-09-17T06:31:30;10.85;;;3.15;;
11348;SDS011;5729;43.570;27.826;2022-09-17T06:33:56;9.27;;;3.67;;
11348;SDS011;5729;43.570;27.826;2022-09-17T06:36:21;13.43;;;4.28;;
11348;SDS011;5729;43.570;27.826;2022-09-17T06:38:47;14.82;;;4.25;;
11348;SDS011;5729;43.570;27.826;2022-09-17T06:41:12;14.75;;;3.95;;
11348;SDS011;5729;43.570;27.826;2022-09-17T06:43:39;13.98;;;3.53;;
11348;SDS011;5729;43.570;27.826;2022-09-17T06:46:04;17.40;;;3.50;;
11348;SDS011;5729;43.570;27.826;2022-09-17T06:48:32;12.15;;;3.00;;
11348;SDS011;5729;43.570;27.826;2022-09-17T06:51:06;15.93;;;3.85;;
11348;SDS011;5729;43.570;27.826;2022-09-17T06:53:34;10.25;;;3.38;;
11348;SDS011;5729;43.570;27.826;2022-09-17T06:56:01;22.17;;;3.88;;
11348;SDS011;5729;43.570;27.826;2022-09-17T06:58:27;22.73;;;3.58;;
11348;SDS011;5729;43.570;27.826;2022-09-17T07:00:56;11.40;;;4.05;;
11348;SDS011;5729;43.570;27.826;2022-09-17T07:03:24;10.23;;;3.58;;
11348;SDS011;5729;43.570;27.826;2022-09-17T07:05:49;15.90;;;3.35;;
11348;SDS011;5729;43.570;27.826;2022-09-17T07:08:14;13.02;;;3.67;;
11348;SDS011;5729;43.570;27.826;2022-09-17T07:10:40;14.90;;;2.90;;
11348;SDS011;5729;43.570;27.826;2022-09-17T07:13:05;15.60;;;2.78;;
11348;SDS011;5729;43.570;27.826;2022-09-17T07:15:31;11.10;;;3.10;;
11348;SDS011;5729;43.570;27.826;2022-09-17T07:17:56;11.90;;;4.18;;
11348;SDS011;5729;43.570;27.826;2022-09-17T07:20:22;12.10;;;3.25;;
11348;SDS011;5729;43.570;27.826;2022-09-17T07:22:54;18.90;;;3.40;;
11348;SDS011;5729;43.570;27.826;2022-09-17T07:25:21;10.70;;;2.83;;
11348;SDS011;5729;43.570;27.826;2022-09-17T07:27:47;15.82;;;2.92;;
11348;SDS011;5729;43.570;27.826;2022-09-17T07:30:12;10.32;;;2.70;;
11348;SDS011;5729;43.570;27.826;2022-09-17T07:32:39;15.43;;;3.70;;
11348;SDS011;5729;43.570;27.826;2022-09-17T07:35:04;10.68;;;2.72;;
11348;SDS011;5729;43.570;27.826;2022-09-17T07:37:30;15.98;;;3.95;;
11348;SDS011;5729;43.570;27.826;2022-09-17T07:39:55;16.55;;;3.20;;
11348;SDS011;5729;43.570;27.826;2022-09-17T07:42:21;9.98;;;2.83;;
11348;SDS011;5729;43.570;27.826;2022-09-17T07:44:46;8.25;;;2.80;;
11348;SDS011;5729;43.570;27.826;2022-09-17T07:47:12;18.40;;;4.22;;
11348;SDS011;5729;43.570;27.826;2022-09-17T07:49:37;16.02;;;3.72;;
11348;SDS011;5729;43.570;27.826;2022-09-17T07:52:03;6.50;;;2.40;;
11348;SDS011;5729;43.570;27.826;2022-09-17T07:54:34;9.40;;;2.65;;
11348;SDS011;5729;43.570;27.826;2022-09-17T07:57:03;11.85;;;3.30;;
11348;SDS011;5729;43.570;27.826;2022-09-17T07:59:29;11.20;;;2.90;;
11348;SDS011;5729;43.570;27.826;2022-09-17T08:01:54;9.85;;;2.85;;
11348;SDS011;5729;43.570;27.826;2022-09-17T08:04:20;8.82;;;2.92;;
11348;SDS011;5729;43.570;27.826;2022-09-17T08:06:45;13.65;;;3.28;;
11348;SDS011;5729;43.570;27.826;2022-09-17T08:09:14;12.10;;;2.85;;
11348;SDS011;5729;43.570;27.826;2022-09-17T08:11:41;10.80;;;3.22;;
11348;SDS011;5729;43.570;27.826;2022-09-17T08:14:11;11.02;;;3.08;;
11348;SDS011;5729;43.570;27.826;2022-09-17T08:16:38;14.02;;;3.13;;
11348;SDS011;5729;43.570;27.826;2022-09-17T08:19:04;18.38;;;3.30;;
11348;SDS011;5729;43.570;27.826;2022-09-17T08:21:29;14.82;;;3.08;;
11348;SDS011;5729;43.570;27.826;2022-09-17T08:23:55;8.18;;;2.72;;
11348;SDS011;5729;43.570;27.826;2022-09-17T08:26:21;10.52;;;3.78;;
11348;SDS011;5729;43.570;27.826;2022-09-17T08:28:48;11.68;;;4.22;;
11348;SDS011;5729;43.570;27.826;2022-09-17T08:31:15;10.23;;;3.17;;
11348;SDS011;5729;43.570;27.826;2022-09-17T08:33:42;13.68;;;2.88;;
11348;SDS011;5729;43.570;27.826;2022-09-17T08:36:09;11.63;;;3.42;;
11348;SDS011;5729;43.570;27.826;2022-09-17T08:38:37;15.93;;;3.20;;
11348;SDS011;5729;43.570;27.826;2022-09-17T08:41:13;19.40;;;3.45;;
11348;SDS011;5729;43.570;27.826;2022-09-17T08:46:47;8.57;;;2.97;;
11348;SDS011;5729;43.570;27.826;2022-09-17T08:57:28;8.32;;;3.10;;
11348;SDS011;5729;43.570;27.826;2022-09-17T09:00:09;7.90;;;3.72;;
11348;SDS011;5729;43.570;27.826;2022-09-17T09:11:16;11.18;;;3.20;;
11348;SDS011;5729;43.570;27.826;2022-09-17T09:13:47;13.18;;;3.40;;
11348;SDS011;5729;43.570;27.826;2022-09-17T09:16:17;9.80;;;2.95;;
11348;SDS011;5729;43.570;27.826;2022-09-17T09:18:49;15.15;;;3.30;;
11348;SDS011;5729;43.570;27.826;2022-09-17T09:23:52;7.60;;;3.00;;
11348;SDS011;5729;43.570;27.826;2022-09-17T09:26:25;10.63;;;2.80;;
11348;SDS011;5729;43.570;27.826;2022-09-17T09:29:04;9.07;;;3.10;;
11348;SDS011;5729;43.570;27.826;2022-09-17T09:33:58;10.13;;;3.53;;
11348;SDS011;5729;43.570;27.826;2022-09-17T09:36:27;13.70;;;3.33;;
11348;SDS011;5729;43.570;27.826;2022-09-17T09:42:03;6.40;;;2.72;;
11348;SDS011;5729;43.570;27.826;2022-09-17T09:44:18;14.30;;;3.85;;
11348;SDS011;5729;43.570;27.826;2022-09-17T09:57:43;7.97;;;3.10;;
11348;SDS011;5729;43.570;27.826;2022-09-17T10:03:10;11.68;;;3.45;;
11348;SDS011;5729;43.570;27.826;2022-09-17T10:05:51;16.48;;;3.38;;
11348;SDS011;5729;43.570;27.826;2022-09-17T10:08:18;8.93;;;2.97;;
11348;SDS011;5729;43.570;27.826;2022-09-17T10:13:20;6.22;;;2.53;;
11348;SDS011;5729;43.570;27.826;2022-09-17T10:15:46;11.75;;;2.92;;
11348;SDS011;5729;43.570;27.826;2022-09-17T10:18:15;11.93;;;3.10;;
11348;SDS011;5729;43.570;27.826;2022-09-17T10:20:55;15.27;;;3.13;;
11348;SDS011;5729;43.570;27.826;2022-09-17T10:23:29;16.27;;;2.90;;
11348;SDS011;5729;43.570;27.826;2022-09-17T10:25:59;12.40;;;3.15;;
11348;SDS011;5729;43.570;27.826;2022-09-17T10:31:08;8.65;;;2.70;;
11348;SDS011;5729;43.570;27.826;2022-09-17T10:33:37;9.20;;;3.08;;
11348;SDS011;5729;43.570;27.826;2022-09-17T10:36:06;15.65;;;4.15;;
11348;SDS011;5729;43.570;27.826;2022-09-17T10:38:38;11.25;;;2.67;;
11348;SDS011;5729;43.570;27.826;2022-09-17T10:43:47;7.60;;;3.17;;
11348;SDS011;5729;43.570;27.826;2022-09-17T10:46:35;10.60;;;3.47;;
11348;SDS011;5729;43.570;27.826;2022-09-17T10:49:23;10.13;;;3.58;;
11348;SDS011;5729;43.570;27.826;2022-09-17T10:52:45;9.23;;;3.10;;
11348;SDS011;5729;43.570;27.826;2022-09-17T11:00:21;11.85;;;3.13;;
11348;SDS011;5729;43.570;27.826;2022-09-17T11:05:53;14.32;;;3.17;;
11348;SDS011;5729;43.570;27.826;2022-09-17T11:11:09;9.02;;;4.00;;
11348;SDS011;5729;43.570;27.826;2022-09-17T11:27:40;10.30;;;2.80;;
11348;SDS011;5729;43.570;27.826;2022-09-17T11:30:48;11.25;;;3.60;;
11348;SDS011;5729;43.570;27.826;2022-09-17T11:39:31;10.88;;;3.50;;
11348;SDS011;5729;43.570;27.826;2022-09-17T11:42:05;12.25;;;2.65;;
11348;SDS011;5729;43.570;27.826;2022-09-17T11:44:40;10.38;;;3.03;;
11348;SDS011;5729;43.570;27.826;2022-09-17T11:47:32;9.02;;;3.00;;
11348;SDS011;5729;43.570;27.826;2022-09-17T11:50:05;8.98;;;3.08;;
11348;SDS011;5729;43.570;27.826;2022-09-17T11:52:44;12.90;;;3.72;;
11348;SDS011;5729;43.570;27.826;2022-09-17T11:57:50;14.70;;;2.97;;
11348;SDS011;5729;43.570;27.826;2022-09-17T12:00:21;10.80;;;4.00;;
11348;SDS011;5729;43.570;27.826;2022-09-17T12:02:51;9.30;;;2.80;;
11348;SDS011;5729;43.570;27.826;2022-09-17T12:05:27;9.05;;;3.00;;
11348;SDS011;5729;43.570;27.826;2022-09-17T12:07:59;8.82;;;3.25;;
11348;SDS011;5729;43.570;27.826;2022-09-17T12:18:43;6.90;;;2.38;;
11348;SDS011;5729;43.570;27.826;2022-09-17T12:21:15;21.33;;;3.28;;
11348;SDS011;5729;43.570;27.826;2022-09-17T12:37:42;13.25;;;3.20;;
11348;SDS011;5729;43.570;27.826;2022-09-17T12:40:54;13.98;;;2.58;;
11348;SDS011;5729;43.570;27.826;2022-09-17T12:46:31;8.65;;;2.95;;
11348;SDS011;5729;43.570;27.826;2022-09-17T12:55:28;8.00;;;2.40;;
11348;SDS011;5729;43.570;27.826;2022-09-17T13:00:54;8.45;;;2.58;;
11348;SDS011;5729;43.570;27.826;2022-09-17T13:03:29;8.90;;;2.83;;
11348;SDS011;5729;43.570;27.826;2022-09-17T13:14:11;6.93;;;1.88;;
11348;SDS011;5729;43.570;27.826;2022-09-17T13:19:49;6.55;;;1.77;;
11348;SDS011;5729;43.570;27.826;2022-09-17T13:22:26;4.55;;;1.48;;
11348;SDS011;5729;43.570;27.826;2022-09-17T13:25:15;8.95;;;1.40;;
11348;SDS011;5729;43.570;27.826;2022-09-17T13:27:43;7.18;;;1.30;;
11348;SDS011;5729;43.570;27.826;2022-09-17T13:30:10;7.45;;;1.50;;
11348;SDS011;5729;43.570;27.826;2022-09-17T13:37:31;6.32;;;1.60;;
11348;SDS011;5729;43.570;27.826;2022-09-17T13:39:59;5.07;;;1.63;;
11348;SDS011;5729;43.570;27.826;2022-09-17T13:42:27;5.75;;;1.30;;
11348;SDS011;5729;43.570;27.826;2022-09-17T13:47:29;12.73;;;1.65;;
11348;SDS011;5729;43.570;27.826;2022-09-17T13:50:06;5.15;;;1.77;;
11348;SDS011;5729;43.570;27.826;2022-09-17T13:52:47;17.80;;;1.90;;
11348;SDS011;5729;43.570;27.826;2022-09-17T13:58:04;6.93;;;1.70;;
11348;SDS011;5729;43.570;27.826;2022-09-17T14:00:47;5.97;;;1.65;;
11348;SDS011;5729;43.570;27.826;2022-09-17T14:13:56;7.05;;;1.70;;
11348;SDS011;5729;43.570;27.826;2022-09-17T14:21:59;13.23;;;2.13;;
11348;SDS011;5729;43.570;27.826;2022-09-17T14:30:41;12.82;;;2.70;;
11348;SDS011;5729;43.570;27.826;2022-09-17T14:35:45;6.70;;;2.03;;
11348;SDS011;5729;43.570;27.826;2022-09-17T14:38:13;10.77;;;2.70;;
11348;SDS011;5729;43.570;27.826;2022-09-17T14:46:20;8.05;;;2.60;;
11348;SDS011;5729;43.570;27.826;2022-09-17T14:48:47;11.93;;;3.33;;
11348;SDS011;5729;43.570;27.826;2022-09-17T14:53:42;7.40;;;2.88;;
11348;SDS011;5729;43.570;27.826;2022-09-17T14:56:17;8.18;;;3.05;;
11348;SDS011;5729;43.570;27.826;2022-09-17T14:58:50;9.45;;;2.65;;
11348;SDS011;5729;43.570;27.826;2022-09-17T15:01:22;7.90;;;2.88;;
11348;SDS011;5729;43.570;27.826;2022-09-17T15:06:39;7.32;;;3.85;;
11348;SDS011;5729;43.570;27.826;2022-09-17T15:09:05;7.00;;;3.20;;
11348;SDS011;5729;43.570;27.826;2022-09-17T15:11:39;6.50;;;3.30;;
11348;SDS011;5729;43.570;27.826;2022-09-17T15:14:09;10.50;;;3.15;;
11348;SDS011;5729;43.570;27.826;2022-09-17T15:16:59;9.43;;;3.50;;
11348;SDS011;5729;43.570;27.826;2022-09-17T15:22:02;7.70;;;3.50;;
11348;SDS011;5729;43.570;27.826;2022-09-17T15:24:47;13.13;;;5.65;;
11348;SDS011;5729;43.570;27.826;2022-09-17T15:29:50;8.07;;;3.45;;
11348;SDS011;5729;43.570;27.826;2022-09-17T15:32:21;7.35;;;3.40;;
11348;SDS011;5729;43.570;27.826;2022-09-17T15:37:44;12.68;;;3.55;;
11348;SDS011;5729;43.570;27.826;2022-09-17T15:40:14;8.38;;;3.72;;
11348;SDS011;5729;43.570;27.826;2022-09-17T15:42:54;10.75;;;3.97;;
11348;SDS011;5729;43.570;27.826;2022-09-17T15:45:42;9.30;;;4.07;;
11348;SDS011;5729;43.570;27.826;2022-09-17T15:48:41;6.38;;;3.80;;
11348;SDS011;5729;43.570;27.826;2022-09-17T15:51:04;11.73;;;4.43;;
11348;SDS011;5729;43.570;27.826;2022-09-17T15:53:39;13.23;;;4.05;;
11348;SDS011;5729;43.570;27.826;2022-09-17T15:56:16;11.25;;;4.10;;
11348;SDS011;5729;43.570;27.826;2022-09-17T16:08:47;11.02;;;4.90;;
11348;SDS011;5729;43.570;27.826;2022-09-17T16:11:15;12.27;;;4.00;;
11348;SDS011;5729;43.570;27.826;2022-09-17T16:13:41;8.98;;;4.20;;
11348;SDS011;5729;43.570;27.826;2022-09-17T16:16:08;8.60;;;4.40;;
11348;SDS011;5729;43.570;27.826;2022-09-17T16:18:39;9.85;;;4.45;;
11348;SDS011;5729;43.570;27.826;2022-09-17T16:21:05;15.27;;;4.47;;
11348;SDS011;5729;43.570;27.826;2022-09-17T16:23:30;9.57;;;4.43;;
11348;SDS011;5729;43.570;27.826;2022-09-17T16:25:56;9.95;;;3.65;;
11348;SDS011;5729;43.570;27.826;2022-09-17T16:28:22;10.60;;;3.20;;
11348;SDS011;5729;43.570;27.826;2022-09-17T16:30:47;13.38;;;3.60;;
11348;SDS011;5729;43.570;27.826;2022-09-17T16:33:14;9.38;;;3.70;;
11348;SDS011;5729;43.570;27.826;2022-09-17T16:35:41;14.35;;;4.57;;
11348;SDS011;5729;43.570;27.826;2022-09-17T16:38:07;11.45;;;4.30;;
11348;SDS011;5729;43.570;27.826;2022-09-17T16:40:33;8.65;;;3.80;;
11348;SDS011;5729;43.570;27.826;2022-09-17T16:43:03;11.13;;;3.50;;
11348;SDS011;5729;43.570;27.826;2022-09-17T16:45:29;12.73;;;3.75;;
11348;SDS011;5729;43.570;27.826;2022-09-17T16:47:55;9.05;;;3.90;;
11348;SDS011;5729;43.570;27.826;2022-09-17T16:50:21;8.18;;;4.50;;
11348;SDS011;5729;43.570;27.826;2022-09-17T16:52:46;9.55;;;3.42;;
11348;SDS011;5729;43.570;27.826;2022-09-17T16:55:13;13.52;;;4.45;;
11348;SDS011;5729;43.570;27.826;2022-09-17T16:57:39;16.27;;;4.65;;
11348;SDS011;5729;43.570;27.826;2022-09-17T17:00:06;12.77;;;3.95;;
11348;SDS011;5729;43.570;27.826;2022-09-17T17:02:38;16.35;;;6.93;;
11348;SDS011;5729;43.570;27.826;2022-09-17T17:05:04;11.70;;;3.83;;
11348;SDS011;5729;43.570;27.826;2022-09-17T17:07:29;10.82;;;6.00;;
11348;SDS011;5729;43.570;27.826;2022-09-17T17:09:58;7.70;;;4.25;;
11348;SDS011;5729;43.570;27.826;2022-09-17T17:12:24;8.45;;;3.97;;
11348;SDS011;5729;43.570;27.826;2022-09-17T17:14:50;13.23;;;5.57;;
11348;SDS011;5729;43.570;27.826;2022-09-17T17:17:16;9.05;;;4.15;;
11348;SDS011;5729;43.570;27.826;2022-09-17T17:19:42;15.00;;;6.00;;
11348;SDS011;5729;43.570;27.826;2022-09-17T17:22:10;11.50;;;4.75;;
11348;SDS011;5729;43.570;27.826;2022-09-17T17:24:35;9.40;;;3.65;;
11348;SDS011;5729;43.570;27.826;2022-09-17T17:27:00;8.88;;;3.88;;
11348;SDS011;5729;43.570;27.826;2022-09-17T17:29:27;11.48;;;4.95;;
11348;SDS011;5729;43.570;27.826;2022-09-17T17:31:53;10.32;;;4.25;;
11348;SDS011;5729;43.570;27.826;2022-09-17T17:34:18;23.50;;;7.68;;
11348;SDS011;5729;43.570;27.826;2022-09-17T17:36:44;30.15;;;10.02;;
11348;SDS011;5729;43.570;27.826;2022-09-17T17:39:12;15.13;;;5.65;;
11348;SDS011;5729;43.570;27.826;2022-09-17T17:41:38;18.45;;;8.73;;
11348;SDS011;5729;43.570;27.826;2022-09-17T17:44:03;14.82;;;5.95;;
11348;SDS011;5729;43.570;27.826;2022-09-17T17:46:29;11.35;;;4.72;;
11348;SDS011;5729;43.570;27.826;2022-09-17T17:48:54;9.07;;;4.18;;
11348;SDS011;5729;43.570;27.826;2022-09-17T17:51:19;8.50;;;3.60;;
11348;SDS011;5729;43.570;27.826;2022-09-17T17:53:47;7.53;;;3.20;;
11348;SDS011;5729;43.570;27.826;2022-09-17T17:56:13;9.48;;;3.30;;
11348;SDS011;5729;43.570;27.826;2022-09-17T17:58:39;5.93;;;2.70;;
11348;SDS011;5729;43.570;27.826;2022-09-17T18:01:09;6.60;;;2.45;;
11348;SDS011;5729;43.570;27.826;2022-09-17T18:03:42;5.35;;;2.45;;
11348;SDS011;5729;43.570;27.826;2022-09-17T18:06:08;4.30;;;2.20;;
11348;SDS011;5729;43.570;27.826;2022-09-17T18:08:34;4.15;;;2.30;;
11348;SDS011;5729;43.570;27.826;2022-09-17T18:11:01;5.95;;;2.22;;
11348;SDS011;5729;43.570;27.826;2022-09-17T18:13:30;6.32;;;2.65;;
11348;SDS011;5729;43.570;27.826;2022-09-17T18:15:56;6.07;;;2.50;;
11348;SDS011;5729;43.570;27.826;2022-09-17T18:18:24;6.80;;;2.60;;
11348;SDS011;5729;43.570;27.826;2022-09-17T18:20:58;10.10;;;2.47;;
11348;SDS011;5729;43.570;27.826;2022-09-17T18:23:25;2.92;;;2.00;;
11348;SDS011;5729;43.570;27.826;2022-09-17T18:25:55;7.15;;;2.65;;
11348;SDS011;5729;43.570;27.826;2022-09-17T18:28:21;3.65;;;2.10;;
11348;SDS011;5729;43.570;27.826;2022-09-17T18:30:48;5.15;;;2.20;;
11348;SDS011;5729;43.570;27.826;2022-09-17T18:33:21;4.70;;;2.20;;
11348;SDS011;5729;43.570;27.826;2022-09-17T18:35:48;7.57;;;2.38;;
11348;SDS011;5729;43.570;27.826;2022-09-17T18:38:15;4.22;;;2.53;;
11348;SDS011;5729;43.570;27.826;2022-09-17T18:40:41;6.53;;;2.80;;
11348;SDS011;5729;43.570;27.826;2022-09-17T18:43:07;12.77;;;3.70;;
11348;SDS011;5729;43.570;27.826;2022-09-17T18:45:32;9.68;;;3.50;;
11348;SDS011;5729;43.570;27.826;2022-09-17T18:47:58;8.65;;;3.25;;
11348;SDS011;5729;43.570;27.826;2022-09-17T18:50:23;11.38;;;3.03;;
11348;SDS011;5729;43.570;27.826;2022-09-17T18:52:49;18.35;;;2.72;;
11348;SDS011;5729;43.570;27.826;2022-09-17T18:55:14;4.85;;;2.38;;
11348;SDS011;5729;43.570;27.826;2022-09-17T18:57:40;7.05;;;3.25;;
11348;SDS011;5729;43.570;27.826;2022-09-17T19:00:06;8.60;;;2.42;;
11348;SDS011;5729;43.570;27.826;2022-09-17T19:02:35;6.05;;;2.85;;
11348;SDS011;5729;43.570;27.826;2022-09-17T19:05:00;6.47;;;2.75;;